createdAt,value
2022-11-22T00:00:53.894Z,74.24
2022-11-22T00:05:50.888Z,74.32
2022-11-22T00:10:49.848Z,74.25
2022-11-22T00:15:58.173Z,73.86
2022-11-22T00:20:55.666Z,74.18
2022-11-22T00:25:53.324Z,73.80
2022-11-22T00:30:51.612Z,73.65
2022-11-22T00:35:49.672Z,73.44
2022-11-22T00:40:46.699Z,73.86
2022-11-22T00:45:44.727Z,73.79
2022-11-22T00:50:41.812Z,73.96
2022-11-22T00:55:38.757Z,73.67
2022-11-22T01:00:36.008Z,73.93
2022-11-22T01:05:33.881Z,73.95
2022-11-22T01:10:30.940Z,74.03
2022-11-22T01:15:28.252Z,73.82
2022-11-22T01:20:25.197Z,73.37
2022-11-22T01:25:23.110Z,73.31
2022-11-22T01:30:20.131Z,73.53
2022-11-22T01:35:17.148Z,73.24
2022-11-22T01:40:14.703Z,73.36
2022-11-22T01:45:50.374Z,72.79
2022-11-22T01:50:51.925Z,73.19
2022-11-22T01:55:51.344Z,72.84
2022-11-22T02:00:53.021Z,72.77
2022-11-22T02:05:51.771Z,73.10
2022-11-22T02:10:53.172Z,72.97
2022-11-22T02:15:51.839Z,73.22
2022-11-22T02:20:48.986Z,73.40
2022-11-22T02:25:52.557Z,72.95
2022-11-22T02:30:49.810Z,73.03
2022-11-22T02:35:47.449Z,72.85
2022-11-22T02:40:49.548Z,72.32
2022-11-22T02:45:47.435Z,72.20
2022-11-22T02:50:45.127Z,72.38
2022-11-22T02:55:42.533Z,72.43
2022-11-22T03:00:39.537Z,72.54
2022-11-22T03:05:37.533Z,72.75
2022-11-22T03:10:34.796Z,72.05
2022-11-22T03:15:31.729Z,72.08
2022-11-22T03:20:29.487Z,71.89
2022-11-22T03:25:27.698Z,72.02
2022-11-22T03:30:25.164Z,72.03
2022-11-22T03:35:22.199Z,72.33
2022-11-22T03:40:20.529Z,72.33
2022-11-22T03:45:18.340Z,72.55
2022-11-22T03:50:26.877Z,72.88
2022-11-22T03:55:24.245Z,72.57
2022-11-22T04:00:23.049Z,72.94
2022-11-22T04:05:20.883Z,72.89
2022-11-22T04:10:22.317Z,73.17
2022-11-22T04:15:19.622Z,73.35
2022-11-22T04:20:37.608Z,73.27
2022-11-22T04:25:36.364Z,73.45
2022-11-22T04:30:54.072Z,73.46
2022-11-22T04:35:52.334Z,73.87
2022-11-22T04:40:49.582Z,73.84
2022-11-22T04:45:47.175Z,73.47
2022-11-22T04:51:03.110Z,73.67
2022-11-22T04:56:20.224Z,74.25
2022-11-22T05:01:27.443Z,73.87
2022-11-22T05:06:36.190Z,73.54
2022-11-22T05:11:39.913Z,73.85
2022-11-22T05:16:48.025Z,73.99
2022-11-22T05:21:45.660Z,74.16
2022-11-22T05:26:43.639Z,73.94
2022-11-22T05:31:44.689Z,74.18
2022-11-22T05:36:43.976Z,74.45
2022-11-22T05:41:55.128Z,74.45
2022-11-22T05:46:52.771Z,74.35
2022-11-22T05:51:49.888Z,74.49
2022-11-22T05:56:48.027Z,74.70
2022-11-22T06:01:45.117Z,74.89
2022-11-22T06:06:43.460Z,74.61
2022-11-22T06:11:40.502Z,74.86
2022-11-22T06:16:37.627Z,74.10
2022-11-22T06:21:35.199Z,74.54
2022-11-22T06:26:38.869Z,74.40
2022-11-22T06:31:36.669Z,74.45
2022-11-22T06:36:35.228Z,74.70
2022-11-22T06:41:35.377Z,74.66
2022-11-22T06:46:32.862Z,74.50
2022-11-22T06:51:31.365Z,73.97
2022-11-22T06:56:29.854Z,74.13
2022-11-22T07:01:29.426Z,73.47
2022-11-22T07:06:28.079Z,73.62
2022-11-22T07:11:27.407Z,73.02
2022-11-22T07:16:24.490Z,73.12
2022-11-22T07:21:24.398Z,72.38
2022-11-22T07:26:23.062Z,72.98
2022-11-22T07:31:20.351Z,72.76
2022-11-22T07:36:18.955Z,72.55
2022-11-22T07:41:18.558Z,72.19
2022-11-22T07:46:21.686Z,72.12
2022-11-22T07:51:20.649Z,71.88
2022-11-22T07:56:18.946Z,71.37
2022-11-22T08:01:17.743Z,71.02
2022-11-22T08:06:15.278Z,70.83
2022-11-22T08:11:14.929Z,70.61
2022-11-22T08:16:15.952Z,70.84
2022-11-22T08:21:13.883Z,71.53
2022-11-22T08:26:13.069Z,70.95
2022-11-22T08:31:18.049Z,70.31
2022-11-22T08:36:14.951Z,70.20
2022-11-22T08:41:13.396Z,70.44
2022-11-22T08:46:13.128Z,70.48
2022-11-22T08:51:11.952Z,70.09
2022-11-22T08:56:13.466Z,69.69
2022-11-22T09:01:13.757Z,69.50
2022-11-22T09:11:31.821Z,69.64
2022-11-22T09:16:29.348Z,69.76
2022-11-22T09:21:26.306Z,69.58
2022-11-22T09:31:51.542Z,69.21
2022-11-22T09:36:48.603Z,69.24
2022-11-22T09:42:13.196Z,69.47
2022-11-22T09:47:22.539Z,68.76
2022-11-22T09:52:27.388Z,68.60
2022-11-22T09:57:30.461Z,67.26
2022-11-22T10:02:43.492Z,67.47
2022-11-22T10:07:57.539Z,68.23
2022-11-22T10:13:02.525Z,68.18
2022-11-22T10:18:04.561Z,68.06
2022-11-22T10:23:03.017Z,68.12
2022-11-22T10:28:10.366Z,66.70
2022-11-22T10:33:17.001Z,65.38
2022-11-22T10:38:52.718Z,65.36
2022-11-22T10:44:00.087Z,65.43
2022-11-22T10:49:07.653Z,65.72
2022-11-22T10:54:14.796Z,66.33
2022-11-22T10:59:30.975Z,63.38
2022-11-22T11:04:33.508Z,65.72
2022-11-22T11:10:09.778Z,66.46
2022-11-22T11:14:59.413Z,63.04
2022-11-22T11:20:00.981Z,64.38
2022-11-22T11:25:28.062Z,66.03
2022-11-22T11:30:25.909Z,64.22
2022-11-22T11:35:28.364Z,63.05
2022-11-22T11:40:27.759Z,61.43
2022-11-22T11:45:29.137Z,57.23
2022-11-22T11:50:29.357Z,51.80
2022-11-22T12:01:18.763Z,51.26
2022-11-22T12:06:17.597Z,51.12
2022-11-22T12:11:20.481Z,51.78
2022-11-22T12:16:22.498Z,53.02
2022-11-22T12:21:26.435Z,54.15
2022-11-22T12:26:23.664Z,54.39
2022-11-22T12:31:29.167Z,55.78
2022-11-22T12:36:32.851Z,55.97
2022-11-22T12:41:32.040Z,56.06
2022-11-22T12:46:39.632Z,55.52
2022-11-22T12:51:44.891Z,55.12
2022-11-22T12:56:48.428Z,55.57
2022-11-22T13:01:50.773Z,56.08
2022-11-22T13:06:56.877Z,56.57
2022-11-22T13:11:59.647Z,56.73
2022-11-22T13:16:57.003Z,57.22
2022-11-22T13:22:08.648Z,58.27
2022-11-22T13:27:15.315Z,58.97
2022-11-22T13:32:19.884Z,58.85
2022-11-22T13:37:18.415Z,58.90
2022-11-22T13:42:19.509Z,58.17
2022-11-22T13:47:38.285Z,57.87
2022-11-22T13:52:52.870Z,59.15
2022-11-22T13:57:49.859Z,59.72
2022-11-22T14:02:49.136Z,61.11
2022-11-22T14:07:51.132Z,62.38
2022-11-22T14:13:09.435Z,63.58
2022-11-22T14:18:21.158Z,63.99
2022-11-22T14:23:31.099Z,65.29
2022-11-22T14:28:55.195Z,65.81
2022-11-22T14:34:15.563Z,66.73
2022-11-22T14:39:52.724Z,67.89
2022-11-22T14:44:51.692Z,68.22
2022-11-22T14:49:50.979Z,68.41
2022-11-22T14:54:51.877Z,67.43
2022-11-22T15:00:13.633Z,67.08
2022-11-22T15:09:10.826Z,67.14
2022-11-22T15:11:05.810Z,66.47
2022-11-22T15:59:01.988Z,64.96
2022-11-22T16:03:59.758Z,64.71
2022-11-22T16:08:59.123Z,64.22
2022-11-22T16:13:56.751Z,64.37
2022-11-22T16:18:53.989Z,64.37
2022-11-22T16:24:11.945Z,64.34
2022-11-22T16:29:25.594Z,64.20
2022-11-22T16:34:22.619Z,64.53
2022-11-22T16:39:21.143Z,64.64
2022-11-22T16:44:20.283Z,64.30
2022-11-22T16:49:18.834Z,64.61
2022-11-22T16:54:18.324Z,64.93
2022-11-22T16:59:16.106Z,64.85
2022-11-22T17:04:21.641Z,64.74
2022-11-22T17:09:18.900Z,65.18
2022-11-22T17:14:18.048Z,65.38
2022-11-22T17:19:37.328Z,65.61
2022-11-22T17:24:33.727Z,65.36
2022-11-22T17:34:48.774Z,65.90
2022-11-22T17:39:46.176Z,66.00
2022-11-22T17:44:43.950Z,66.21
2022-11-22T17:49:41.172Z,66.38
2022-11-22T17:54:38.313Z,67.10
2022-11-22T17:59:35.427Z,68.14
2022-11-22T18:04:33.260Z,68.88
2022-11-22T18:09:32.489Z,69.55
2022-11-22T18:14:30.310Z,69.93
2022-11-22T18:19:29.774Z,71.47
2022-11-22T18:24:28.348Z,72.03
2022-11-22T18:34:42.620Z,73.85
2022-11-22T18:39:40.645Z,75.30
2022-11-22T18:44:38.410Z,75.44
2022-11-22T18:49:36.658Z,75.41
2022-11-22T18:54:34.617Z,75.56
2022-11-22T18:59:32.738Z,75.94
2022-11-22T19:04:30.158Z,75.84
2022-11-22T19:09:27.797Z,76.35
2022-11-22T19:14:26.586Z,76.69
2022-11-22T19:19:24.651Z,76.64
2022-11-22T19:24:21.845Z,76.73
2022-11-22T19:29:20.939Z,76.89
2022-11-22T19:34:19.896Z,76.95
2022-11-22T19:39:20.167Z,76.39
2022-11-22T19:44:17.470Z,76.79
2022-11-22T19:49:14.639Z,76.55
2022-11-22T19:54:13.561Z,76.92
2022-11-22T19:59:15.097Z,76.53
2022-11-22T20:04:14.334Z,76.33
2022-11-22T20:09:12.757Z,77.80
2022-11-22T20:14:10.786Z,77.58
2022-11-22T20:19:09.053Z,77.03
2022-11-22T20:24:06.779Z,76.74
2022-11-22T20:29:05.568Z,76.48
2022-11-22T20:34:03.238Z,75.72
2022-11-22T20:39:04.032Z,74.60
2022-11-22T20:44:04.119Z,73.66
2022-11-22T20:49:01.186Z,73.60
2022-11-22T20:53:59.205Z,73.14
2022-11-22T20:58:56.152Z,73.52
2022-11-22T21:03:54.170Z,73.51
2022-11-22T21:08:58.872Z,73.73
2022-11-22T21:13:57.156Z,74.02
2022-11-22T21:18:55.754Z,74.25
2022-11-22T21:23:54.719Z,75.18
2022-11-22T21:28:56.131Z,75.63
2022-11-22T21:33:53.969Z,76.04
2022-11-22T21:38:50.823Z,76.94
2022-11-22T21:43:50.611Z,77.01
2022-11-22T21:48:49.095Z,76.83
2022-11-22T21:53:46.642Z,76.04
2022-11-22T21:58:43.978Z,75.59
2022-11-22T22:03:40.953Z,75.85
2022-11-22T22:08:37.970Z,76.29
2022-11-22T22:13:35.529Z,77.59
2022-11-22T22:18:33.065Z,78.22
2022-11-22T22:23:29.887Z,78.86
2022-11-22T22:28:31.040Z,78.14
2022-11-22T22:33:29.379Z,77.60
2022-11-22T22:38:26.799Z,77.87
2022-11-22T22:43:24.212Z,78.01
2022-11-22T22:48:21.198Z,78.00
2022-11-22T22:53:18.943Z,78.01
2022-11-22T22:58:20.587Z,78.62
2022-11-22T23:03:18.961Z,79.05
2022-11-22T23:08:15.942Z,79.57
2022-11-22T23:13:13.719Z,79.46
2022-11-22T23:18:10.699Z,80.07
2022-11-22T23:23:07.613Z,80.96
2022-11-22T23:28:04.752Z,81.98
2022-11-22T23:33:02.742Z,82.33
2022-11-22T23:37:59.671Z,82.76
2022-11-22T23:42:57.101Z,83.08
2022-11-22T23:47:53.959Z,83.67
2022-11-22T23:52:56.030Z,82.73
2022-11-22T23:57:52.976Z,82.50
